IGO207 VECC-VEAT
Flight info
| Callsign | IGO207 |
|---|---|
| Flight time | 0h 37m |
| Altitude | 25000 |
| Route | 223621N0882642E 223328N0883948E DCT SUMAG DCT 233550N0912151E 234140N0912149E 234145N0911511E DCT 234412N0911343E |
| Aircraft | A20N/M-SDE2E3FGHIRWXY/LB1 |
Departure
| Time | 2026-05-07 17:35 |
|---|---|
| Airport | Netaji Subhash Chandra Bose International Airport (VECC) |
Arrival
| Time | 2026-05-07 18:13 |
|---|---|
| Airport | Agartala - Maharaja Bir Bikram Airport (VEAT) |
| Time | Latitude | Longitude | Altitude | Speed | Heading |
|---|---|---|---|---|---|
| 2026-05-07 17:22 | 22.64298 | 88.44060 | 28 ft | 0 kts | 275° |
| 2026-05-07 17:28 | 22.64297 | 88.44074 | 28 ft | 2 kts | 275° |
| 2026-05-07 17:28 | 22.64296 | 88.44092 | 28 ft | 2 kts | 274° |
| 2026-05-07 17:28 | 22.64294 | 88.44110 | 28 ft | 2 kts | 272° |
| 2026-05-07 17:28 | 22.64294 | 88.44128 | 28 ft | 2 kts | 269° |
| 2026-05-07 17:29 | 22.64295 | 88.44146 | 28 ft | 2 kts | 251° |
| 2026-05-07 17:29 | 22.64305 | 88.44158 | 28 ft | 1 kts | 188° |
| 2026-05-07 17:29 | 22.64309 | 88.44158 | 28 ft | 0 kts | 188° |
| 2026-05-07 17:30 | 22.64308 | 88.44158 | 28 ft | 0 kts | 188° |
| 2026-05-07 17:30 | 22.64288 | 88.44155 | 28 ft | 6 kts | 188° |
| 2026-05-07 17:30 | 22.64221 | 88.44147 | 28 ft | 13 kts | 185° |
| 2026-05-07 17:31 | 22.64114 | 88.44132 | 28 ft | 17 kts | 187° |
| 2026-05-07 17:31 | 22.64020 | 88.44150 | 28 ft | 12 kts | 121° |
| 2026-05-07 17:31 | 22.64006 | 88.44239 | 28 ft | 12 kts | 96° |
| 2026-05-07 17:31 | 22.64052 | 88.44292 | 28 ft | 11 kts | 10° |
| 2026-05-07 17:32 | 22.64133 | 88.44305 | 28 ft | 12 kts | 11° |
| 2026-05-07 17:32 | 22.64180 | 88.44377 | 28 ft | 12 kts | 68° |
| 2026-05-07 17:32 | 22.64215 | 88.44464 | 29 ft | 13 kts | 63° |
| 2026-05-07 17:32 | 22.64235 | 88.44510 | 29 ft | 5 kts | 66° |
| 2026-05-07 17:33 | 22.64253 | 88.44556 | 28 ft | 0 kts | 68° |
| 2026-05-07 17:34 | 22.64254 | 88.44559 | 28 ft | 2 kts | 68° |
| 2026-05-07 17:34 | 22.64276 | 88.44607 | 28 ft | 12 kts | 61° |
| 2026-05-07 17:34 | 22.64355 | 88.44653 | 28 ft | 16 kts | 7° |
| 2026-05-07 17:34 | 22.64591 | 88.44683 | 31 ft | 67 kts | 6° |
| 2026-05-07 17:35 | 22.65281 | 88.44762 | 28 ft | 128 kts | 6° |
| 2026-05-07 17:35 | 22.66321 | 88.44888 | 111 ft | 166 kts | 7° |
| 2026-05-07 17:35 | 22.67498 | 88.45017 | 602 ft | 177 kts | 7° |
| 2026-05-07 17:35 | 22.68768 | 88.45188 | 1073 ft | 191 kts | 16° |
| 2026-05-07 17:36 | 22.69947 | 88.45892 | 1638 ft | 199 kts | 45° |
| 2026-05-07 17:36 | 22.70700 | 88.47151 | 2179 ft | 203 kts | 73° |
| 2026-05-07 17:36 | 22.70934 | 88.48666 | 2801 ft | 208 kts | 85° |
| 2026-05-07 17:36 | 22.71084 | 88.50261 | 3475 ft | 218 kts | 85° |
| 2026-05-07 17:37 | 22.71239 | 88.51941 | 4130 ft | 234 kts | 84° |
| 2026-05-07 17:37 | 22.71410 | 88.53758 | 4790 ft | 252 kts | 84° |
| 2026-05-07 17:37 | 22.71624 | 88.55724 | 5380 ft | 275 kts | 81° |
| 2026-05-07 17:37 | 22.72004 | 88.57805 | 6170 ft | 286 kts | 76° |
| 2026-05-07 17:38 | 22.72522 | 88.59906 | 6641 ft | 290 kts | 72° |
| 2026-05-07 17:38 | 22.73124 | 88.62001 | 6826 ft | 292 kts | 71° |
| 2026-05-07 17:38 | 22.73759 | 88.64086 | 6904 ft | 292 kts | 70° |
| 2026-05-07 17:38 | 22.74406 | 88.66177 | 6912 ft | 292 kts | 70° |
| 2026-05-07 17:39 | 22.75047 | 88.68254 | 6902 ft | 291 kts | 71° |
| 2026-05-07 17:39 | 22.75319 | 88.70419 | 6991 ft | 295 kts | 96° |
| 2026-05-07 17:39 | 22.74663 | 88.72523 | 7473 ft | 299 kts | 123° |
| 2026-05-07 17:39 | 22.73434 | 88.74340 | 8478 ft | 300 kts | 128° |
| 2026-05-07 17:40 | 22.72125 | 88.76127 | 9428 ft | 306 kts | 129° |
| 2026-05-07 17:40 | 22.70789 | 88.77953 | 10260 ft | 315 kts | 129° |
| 2026-05-07 17:40 | 22.69390 | 88.79892 | 10674 ft | 339 kts | 128° |
| 2026-05-07 17:40 | 22.67900 | 88.81980 | 11043 ft | 361 kts | 128° |
| 2026-05-07 17:41 | 22.66860 | 88.83451 | 11512 ft | 366 kts | 128° |
| 2026-05-07 17:41 | 22.64800 | 88.86378 | 12480 ft | 372 kts | 128° |
| 2026-05-07 17:41 | 22.63759 | 88.87858 | 12698 ft | 374 kts | 128° |
| 2026-05-07 17:41 | 22.62180 | 88.90105 | 12857 ft | 375 kts | 128° |
| 2026-05-07 17:42 | 22.60866 | 88.92536 | 12951 ft | 378 kts | 110° |
| 2026-05-07 17:42 | 22.60402 | 88.95336 | 13552 ft | 380 kts | 88° |
| 2026-05-07 17:42 | 22.60834 | 88.98138 | 14335 ft | 380 kts | 70° |
| 2026-05-07 17:42 | 22.61872 | 89.00783 | 15000 ft | 386 kts | 62° |
| 2026-05-07 17:43 | 22.63106 | 89.03383 | 15658 ft | 391 kts | 60° |
| 2026-05-07 17:43 | 22.64361 | 89.06024 | 16300 ft | 398 kts | 62° |
| 2026-05-07 17:43 | 22.65596 | 89.08735 | 16954 ft | 404 kts | 63° |
| 2026-05-07 17:43 | 22.66809 | 89.11507 | 17599 ft | 410 kts | 63° |
| 2026-05-07 17:44 | 22.68017 | 89.14332 | 18219 ft | 417 kts | 64° |
| 2026-05-07 17:44 | 22.69231 | 89.17201 | 18760 ft | 422 kts | 64° |
| 2026-05-07 17:44 | 22.70457 | 89.20110 | 19312 ft | 427 kts | 64° |
| 2026-05-07 17:44 | 22.71699 | 89.23056 | 19856 ft | 432 kts | 64° |
| 2026-05-07 17:45 | 22.72955 | 89.26037 | 20391 ft | 438 kts | 65° |
| 2026-05-07 17:45 | 22.74225 | 89.29050 | 20915 ft | 443 kts | 65° |
| 2026-05-07 17:45 | 22.75513 | 89.32107 | 21443 ft | 448 kts | 65° |
| 2026-05-07 17:45 | 22.76812 | 89.35192 | 21968 ft | 453 kts | 65° |
| 2026-05-07 17:46 | 22.78127 | 89.38316 | 22479 ft | 458 kts | 65° |
| 2026-05-07 17:46 | 22.79457 | 89.41478 | 22980 ft | 463 kts | 65° |
| 2026-05-07 17:46 | 22.80800 | 89.44673 | 23488 ft | 468 kts | 65° |
| 2026-05-07 17:46 | 22.82156 | 89.47901 | 23920 ft | 472 kts | 65° |
| 2026-05-07 17:47 | 22.83521 | 89.51153 | 24359 ft | 476 kts | 66° |
| 2026-05-07 17:47 | 22.84896 | 89.54433 | 24712 ft | 480 kts | 66° |
| 2026-05-07 17:47 | 22.86284 | 89.57743 | 24864 ft | 482 kts | 66° |
| 2026-05-07 17:47 | 22.87670 | 89.61054 | 24907 ft | 482 kts | 66° |
| 2026-05-07 17:48 | 22.89055 | 89.64363 | 24906 ft | 482 kts | 66° |
| 2026-05-07 17:48 | 22.90439 | 89.67672 | 24906 ft | 482 kts | 66° |
| 2026-05-07 17:48 | 22.91824 | 89.70986 | 24916 ft | 482 kts | 66° |
| 2026-05-07 17:48 | 22.93206 | 89.74295 | 24910 ft | 482 kts | 66° |
| 2026-05-07 17:49 | 22.94589 | 89.77607 | 24919 ft | 482 kts | 66° |
| 2026-05-07 17:49 | 22.95970 | 89.80918 | 24909 ft | 482 kts | 66° |
| 2026-05-07 17:49 | 22.97352 | 89.84234 | 24912 ft | 482 kts | 66° |
| 2026-05-07 17:49 | 22.98730 | 89.87543 | 24908 ft | 482 kts | 66° |
| 2026-05-07 17:50 | 23.00110 | 89.90859 | 24918 ft | 482 kts | 66° |
| 2026-05-07 17:50 | 23.01488 | 89.94171 | 24913 ft | 482 kts | 66° |
| 2026-05-07 17:50 | 23.02868 | 89.97490 | 24912 ft | 482 kts | 66° |
| 2026-05-07 17:50 | 23.04244 | 90.00804 | 24916 ft | 482 kts | 66° |
| 2026-05-07 17:51 | 23.05620 | 90.04119 | 24918 ft | 482 kts | 66° |
| 2026-05-07 17:51 | 23.06996 | 90.07439 | 24915 ft | 482 kts | 66° |
| 2026-05-07 17:51 | 23.08372 | 90.10758 | 24919 ft | 482 kts | 66° |
| 2026-05-07 17:51 | 23.09743 | 90.14071 | 24916 ft | 482 kts | 66° |
| 2026-05-07 17:52 | 23.11117 | 90.17390 | 24916 ft | 482 kts | 66° |
| 2026-05-07 17:52 | 23.12491 | 90.20714 | 24917 ft | 482 kts | 66° |
| 2026-05-07 17:52 | 23.13863 | 90.24035 | 24916 ft | 482 kts | 66° |
| 2026-05-07 17:52 | 23.15234 | 90.27355 | 24915 ft | 482 kts | 66° |
| 2026-05-07 17:53 | 23.16606 | 90.30680 | 24924 ft | 482 kts | 66° |
| 2026-05-07 17:53 | 23.17957 | 90.33956 | 24920 ft | 481 kts | 66° |
| 2026-05-07 17:53 | 23.19342 | 90.37320 | 24917 ft | 481 kts | 66° |
| 2026-05-07 17:53 | 23.20691 | 90.40595 | 24918 ft | 482 kts | 66° |
| 2026-05-07 17:54 | 23.22078 | 90.43965 | 24915 ft | 482 kts | 66° |
| 2026-05-07 17:54 | 23.23445 | 90.47292 | 24922 ft | 482 kts | 66° |
| 2026-05-07 17:54 | 23.24809 | 90.50612 | 24920 ft | 482 kts | 66° |
| 2026-05-07 17:54 | 23.26176 | 90.53941 | 24916 ft | 482 kts | 66° |
| 2026-05-07 17:55 | 23.27542 | 90.57270 | 24917 ft | 482 kts | 66° |
| 2026-05-07 17:55 | 23.28907 | 90.60600 | 24918 ft | 482 kts | 66° |
| 2026-05-07 17:55 | 23.30270 | 90.63926 | 24917 ft | 482 kts | 66° |
| 2026-05-07 17:55 | 23.31633 | 90.67255 | 24913 ft | 482 kts | 66° |
| 2026-05-07 17:56 | 23.32999 | 90.70594 | 24790 ft | 482 kts | 66° |
| 2026-05-07 17:56 | 23.34356 | 90.73916 | 24561 ft | 479 kts | 67° |
| 2026-05-07 17:56 | 23.35415 | 90.77336 | 24077 ft | 477 kts | 78° |
| 2026-05-07 17:56 | 23.36116 | 90.80869 | 23291 ft | 477 kts | 79° |
| 2026-05-07 17:57 | 23.36771 | 90.84413 | 21925 ft | 478 kts | 80° |
| 2026-05-07 17:57 | 23.37203 | 90.86771 | 20979 ft | 480 kts | 79° |
| 2026-05-07 17:57 | 23.38091 | 90.91551 | 19062 ft | 483 kts | 79° |
| 2026-05-07 17:57 | 23.38755 | 90.95065 | 17968 ft | 476 kts | 78° |
| 2026-05-07 17:58 | 23.39418 | 90.98548 | 16841 ft | 465 kts | 78° |
| 2026-05-07 17:58 | 23.40079 | 91.02007 | 15721 ft | 456 kts | 78° |
| 2026-05-07 17:58 | 23.40717 | 91.05349 | 14645 ft | 447 kts | 78° |
| 2026-05-07 17:58 | 23.41335 | 91.08586 | 13597 ft | 438 kts | 78° |
| 2026-05-07 17:59 | 23.41952 | 91.11802 | 12462 ft | 429 kts | 77° |
| 2026-05-07 17:59 | 23.42574 | 91.14989 | 11342 ft | 421 kts | 77° |
| 2026-05-07 17:59 | 23.43030 | 91.18067 | 10298 ft | 413 kts | 85° |
| 2026-05-07 17:59 | 23.43127 | 91.21165 | 9241 ft | 406 kts | 89° |
| 2026-05-07 18:00 | 23.43145 | 91.24209 | 8214 ft | 398 kts | 91° |
| 2026-05-07 18:00 | 23.43027 | 91.27224 | 7227 ft | 390 kts | 94° |
| 2026-05-07 18:00 | 23.42828 | 91.30102 | 6277 ft | 382 kts | 94° |
| 2026-05-07 18:00 | 23.42627 | 91.32958 | 5332 ft | 375 kts | 94° |
| 2026-05-07 18:01 | 23.42423 | 91.35766 | 4344 ft | 368 kts | 94° |
| 2026-05-07 18:01 | 23.42396 | 91.36492 | 4077 ft | 366 kts | 89° |
| 2026-05-07 18:01 | 23.42783 | 91.39173 | 3400 ft | 352 kts | 71° |
| 2026-05-07 18:01 | 23.43847 | 91.41467 | 3076 ft | 329 kts | 54° |
| 2026-05-07 18:02 | 23.47110 | 91.44287 | 2879 ft | 278 kts | 22° |
| 2026-05-07 18:02 | 23.48910 | 91.44823 | 2861 ft | 267 kts | 8° |
| 2026-05-07 18:02 | 23.50773 | 91.44870 | 2763 ft | 266 kts | 353° |
| 2026-05-07 18:03 | 23.52529 | 91.44431 | 2659 ft | 252 kts | 340° |
| 2026-05-07 18:03 | 23.54043 | 91.43611 | 2582 ft | 235 kts | 326° |
| 2026-05-07 18:03 | 23.55258 | 91.42544 | 2579 ft | 216 kts | 314° |
| 2026-05-07 18:03 | 23.56203 | 91.41319 | 2580 ft | 205 kts | 306° |
| 2026-05-07 18:04 | 23.57030 | 91.40112 | 2582 ft | 193 kts | 307° |
| 2026-05-07 18:04 | 23.57848 | 91.38938 | 2582 ft | 195 kts | 307° |
| 2026-05-07 18:04 | 23.58668 | 91.37771 | 2584 ft | 193 kts | 307° |
| 2026-05-07 18:04 | 23.59487 | 91.36603 | 2583 ft | 194 kts | 307° |
| 2026-05-07 18:05 | 23.60302 | 91.35432 | 2581 ft | 194 kts | 307° |
| 2026-05-07 18:05 | 23.61116 | 91.34263 | 2583 ft | 194 kts | 307° |
| 2026-05-07 18:05 | 23.61930 | 91.33092 | 2580 ft | 194 kts | 307° |
| 2026-05-07 18:05 | 23.62743 | 91.31923 | 2587 ft | 194 kts | 307° |
| 2026-05-07 18:06 | 23.63557 | 91.30750 | 2584 ft | 194 kts | 307° |
| 2026-05-07 18:06 | 23.64359 | 91.29595 | 2582 ft | 194 kts | 307° |
| 2026-05-07 18:06 | 23.65187 | 91.28404 | 2582 ft | 196 kts | 307° |
| 2026-05-07 18:06 | 23.66000 | 91.27233 | 2575 ft | 196 kts | 307° |
| 2026-05-07 18:07 | 23.66823 | 91.26046 | 2580 ft | 196 kts | 307° |
| 2026-05-07 18:07 | 23.67647 | 91.24859 | 2583 ft | 196 kts | 307° |
| 2026-05-07 18:07 | 23.68479 | 91.23683 | 2579 ft | 196 kts | 313° |
| 2026-05-07 18:07 | 23.69625 | 91.22964 | 2665 ft | 188 kts | 348° |
| 2026-05-07 18:08 | 23.70879 | 91.22952 | 2637 ft | 175 kts | 4° |
| 2026-05-07 18:08 | 23.72052 | 91.23038 | 2545 ft | 163 kts | 4° |
| 2026-05-07 18:08 | 23.73151 | 91.23107 | 2406 ft | 156 kts | 3° |
| 2026-05-07 18:08 | 23.74217 | 91.23162 | 2242 ft | 151 kts | 2° |
| 2026-05-07 18:09 | 23.75263 | 91.23212 | 2054 ft | 150 kts | 2° |
| 2026-05-07 18:09 | 23.76308 | 91.23263 | 1866 ft | 150 kts | 2° |
| 2026-05-07 18:09 | 23.77349 | 91.23313 | 1716 ft | 147 kts | 2° |
| 2026-05-07 18:09 | 23.78374 | 91.23359 | 1701 ft | 152 kts | 2° |
| 2026-05-07 18:10 | 23.79418 | 91.23406 | 1632 ft | 150 kts | 2° |
| 2026-05-07 18:10 | 23.80463 | 91.23429 | 1488 ft | 150 kts | 0° |
| 2026-05-07 18:10 | 23.81504 | 91.23441 | 1290 ft | 150 kts | 1° |
| 2026-05-07 18:10 | 23.82538 | 91.23489 | 1044 ft | 148 kts | 3° |
| 2026-05-07 18:11 | 23.83566 | 91.23570 | 812 ft | 147 kts | 5° |
| 2026-05-07 18:11 | 23.84515 | 91.23662 | 597 ft | 146 kts | 5° |
| 2026-05-07 18:11 | 23.85521 | 91.23767 | 448 ft | 145 kts | 5° |
| 2026-05-07 18:12 | 23.86527 | 91.23871 | 312 ft | 145 kts | 5° |
| 2026-05-07 18:12 | 23.87528 | 91.23970 | 142 ft | 144 kts | 5° |
| 2026-05-07 18:12 | 23.88502 | 91.24065 | 56 ft | 128 kts | 5° |
| 2026-05-07 18:12 | 23.89182 | 91.24123 | 59 ft | 69 kts | 4° |
| 2026-05-07 18:13 | 23.89540 | 91.24151 | 59 ft | 38 kts | 5° |
| 2026-05-07 18:13 | 23.89660 | 91.24146 | 59 ft | 12 kts | 333° |
| 2026-05-07 18:13 | 23.89721 | 91.24141 | 64 ft | 4 kts | 66° |
| 2026-05-07 18:13 | 23.89707 | 91.24160 | 64 ft | 5 kts | 149° |
| 2026-05-07 18:14 | 23.89666 | 91.24162 | 58 ft | 8 kts | 182° |
| 2026-05-07 18:14 | 23.89599 | 91.24159 | 62 ft | 11 kts | 185° |
| 2026-05-07 18:14 | 23.89508 | 91.24150 | 64 ft | 15 kts | 184° |
| 2026-05-07 18:14 | 23.89392 | 91.24142 | 60 ft | 18 kts | 184° |
| 2026-05-07 18:15 | 23.89254 | 91.24129 | 59 ft | 21 kts | 184° |
| 2026-05-07 18:15 | 23.89094 | 91.24116 | 58 ft | 25 kts | 185° |
| 2026-05-07 18:15 | 23.88912 | 91.24101 | 56 ft | 28 kts | 184° |
| 2026-05-07 18:15 | 23.88736 | 91.24087 | 57 ft | 7 kts | 177° |
| 2026-05-07 18:16 | 23.88702 | 91.24113 | 60 ft | 8 kts | 119° |
| 2026-05-07 18:16 | 23.88694 | 91.24186 | 63 ft | 11 kts | 94° |
| 2026-05-07 18:16 | 23.88684 | 91.24279 | 63 ft | 13 kts | 115° |
| 2026-05-07 18:16 | 23.88633 | 91.24300 | 54 ft | 4 kts | 113° |
| 2026-05-07 18:17 | 23.88634 | 91.24345 | 61 ft | 4 kts | 92° |
| 2026-05-07 18:17 | 23.88634 | 91.24346 | 61 ft | 0 kts | 92° |